Time;durP1;ratioP1;P1;durP2;ratioP2;P2;SDS_P1;SDS_P2;PMS_P1;PMS_P2;Temp;Humidity;BMP_temperature;BMP_pressure;BME280_temperature;BME280_humidity;BME280_pressure;Samples;Min_cycle;Max_cycle;Signal;HPM_P1;HPM_P2
2022/10/14 00:00:59;;;;;;;31.23;13.25;;;;;;;;;;5015612;28;20459;-65
2022/10/14 00:03:25;;;;;;;25.58;10.82;;;;;;;;;;5018035;28;20030;-66
2022/10/14 00:05:50;;;;;;;22.63;12.27;;;;;;;;;;5010285;28;20018;-66
2022/10/14 00:08:15;;;;;;;23.20;11.13;;;;;;;;;;5013487;28;20308;-67
2022/10/14 00:10:40;;;;;;;27.33;12.68;;;;;;;;;;5021304;28;20506;-65
2022/10/14 00:13:05;;;;;;;29.97;13.80;;;;;;;;;;5017241;28;20018;-65
2022/10/14 00:15:30;;;;;;;27.35;13.55;;;;;;;;;;5024563;28;20737;-67
2022/10/14 00:17:56;;;;;;;26.85;12.23;;;;;;;;;;5010684;28;20532;-66
2022/10/14 00:20:21;;;;;;;17.65;8.57;;;;;;;;;;5013610;28;20056;-66
2022/10/14 00:22:46;;;;;;;14.90;7.93;;;;;;;;;;5016611;28;20032;-69
2022/10/14 00:25:11;;;;;;;28.85;12.13;;;;;;;;;;5024724;28;20373;-65
2022/10/14 00:27:37;;;;;;;17.80;8.37;;;;;;;;;;5013529;28;20240;-64
2022/10/14 00:30:02;;;;;;;29.23;13.80;;;;;;;;;;5011737;28;20273;-65
2022/10/14 00:32:27;;;;;;;22.50;12.43;;;;;;;;;;5014171;28;20099;-66
2022/10/14 00:34:52;;;;;;;28.50;11.80;;;;;;;;;;5010913;28;20029;-66
2022/10/14 00:37:17;;;;;;;24.80;10.83;;;;;;;;;;5012463;28;20379;-65
2022/10/14 00:39:43;;;;;;;26.93;10.43;;;;;;;;;;5020940;28;20273;-64
2022/10/14 00:42:11;;;;;;;22.03;9.87;;;;;;;;;;5016606;28;21173;-65
2022/10/14 00:44:42;;;;;;;28.35;12.07;;;;;;;;;;5017887;28;20272;-65
2022/10/14 00:47:08;;;;;;;26.17;11.05;;;;;;;;;;5007940;28;20022;-66
2022/10/14 00:49:35;;;;;;;25.63;9.75;;;;;;;;;;5012364;28;20033;-66
2022/10/14 00:52:02;;;;;;;25.17;11.80;;;;;;;;;;5020495;28;20505;-66
2022/10/14 00:54:36;;;;;;;29.38;11.40;;;;;;;;;;5010014;28;20034;-65
2022/10/14 00:57:02;;;;;;;30.00;11.85;;;;;;;;;;5011026;28;20030;-65
2022/10/14 00:59:27;;;;;;;32.28;13.02;;;;;;;;;;5010110;28;20036;-64
2022/10/14 01:01:52;;;;;;;24.63;11.40;;;;;;;;;;5007298;28;20026;-65
2022/10/14 01:04:17;;;;;;;29.95;13.63;;;;;;;;;;5008901;28;20037;-66
2022/10/14 01:06:46;;;;;;;28.73;12.98;;;;;;;;;;5009226;28;20116;-65
2022/10/14 01:09:29;;;;;;;23.15;11.75;;;;;;;;;;5021246;28;20100;-67
2022/10/14 01:12:03;;;;;;;25.27;11.60;;;;;;;;;;5017733;28;20029;-64
2022/10/14 01:14:48;;;;;;;27.35;11.45;;;;;;;;;;5013984;28;20048;-65
2022/10/14 01:17:17;;;;;;;29.88;11.88;;;;;;;;;;5008153;28;20105;-65
2022/10/14 01:20:01;;;;;;;23.80;11.25;;;;;;;;;;5017521;28;20026;-67
2022/10/14 01:22:30;;;;;;;20.90;10.13;;;;;;;;;;5021101;28;20117;-66
2022/10/14 01:25:07;;;;;;;27.92;11.07;;;;;;;;;;5013278;28;20025;-64
2022/10/14 01:27:41;;;;;;;17.77;10.00;;;;;;;;;;5013122;28;20367;-65
2022/10/14 01:30:08;;;;;;;23.55;9.93;;;;;;;;;;5005531;28;20104;-66
2022/10/14 01:32:45;;;;;;;24.10;12.00;;;;;;;;;;5009090;28;20049;-64
2022/10/14 01:35:16;;;;;;;24.10;11.10;;;;;;;;;;5008978;28;20021;-66
2022/10/14 01:37:46;;;;;;;22.48;11.15;;;;;;;;;;5010919;28;20017;-66
2022/10/14 01:40:17;;;;;;;25.40;11.93;;;;;;;;;;5024742;28;20492;-65
2022/10/14 01:42:43;;;;;;;25.70;9.65;;;;;;;;;;5010886;28;20025;-64
2022/10/14 01:45:11;;;;;;;24.83;11.00;;;;;;;;;;5009507;28;20029;-64
2022/10/14 01:47:37;;;;;;;27.08;10.88;;;;;;;;;;5013884;28;20028;-65
2022/10/14 01:50:06;;;;;;;19.58;10.55;;;;;;;;;;5023775;28;20014;-65
2022/10/14 01:52:33;;;;;;;19.75;9.55;;;;;;;;;;5030395;28;20006;-66
2022/10/14 01:55:01;;;;;;;12.98;5.72;;;;;;;;;;5016925;28;20494;-66
2022/10/14 01:57:29;;;;;;;24.42;9.80;;;;;;;;;;5005907;28;20264;-65
2022/10/14 01:59:54;;;;;;;19.08;8.77;;;;;;;;;;5012077;28;20026;-64
2022/10/14 02:02:20;;;;;;;20.25;8.88;;;;;;;;;;5029489;28;20021;-64
2022/10/14 02:04:45;;;;;;;25.25;9.68;;;;;;;;;;5017848;28;20033;-65
2022/10/14 02:07:13;;;;;;;18.42;9.75;;;;;;;;;;5007899;28;20068;-65
2022/10/14 02:09:44;;;;;;;20.85;9.98;;;;;;;;;;5012360;28;20071;-65
2022/10/14 02:12:21;;;;;;;26.55;9.32;;;;;;;;;;5014578;28;20056;-65
2022/10/14 02:14:49;;;;;;;20.30;8.40;;;;;;;;;;5009066;28;20018;-66
2022/10/14 02:17:35;;;;;;;18.48;8.35;;;;;;;;;;5009761;28;20105;-66
2022/10/14 02:20:07;;;;;;;16.88;7.82;;;;;;;;;;5019726;28;20029;-66
2022/10/14 02:22:32;;;;;;;15.27;8.32;;;;;;;;;;5014518;28;20481;-65
2022/10/14 02:25:08;;;;;;;14.18;7.95;;;;;;;;;;5006753;28;20069;-65
2022/10/14 02:27:34;;;;;;;17.98;6.20;;;;;;;;;;5001283;28;20030;-65
2022/10/14 02:30:00;;;;;;;28.33;7.97;;;;;;;;;;5018662;28;20025;-66
2022/10/14 02:32:27;;;;;;;17.23;8.18;;;;;;;;;;5022484;28;20025;-66
2022/10/14 02:34:53;;;;;;;14.48;7.28;;;;;;;;;;5019996;28;20021;-64
2022/10/14 02:37:20;;;;;;;16.83;7.63;;;;;;;;;;5021684;28;20022;-63
2022/10/14 02:39:48;;;;;;;15.93;7.72;;;;;;;;;;5017688;28;20018;-64
2022/10/14 02:42:13;;;;;;;13.13;6.35;;;;;;;;;;5009102;28;20441;-64
2022/10/14 02:44:50;;;;;;;16.00;6.63;;;;;;;;;;5009997;28;20041;-64
2022/10/14 02:47:15;;;;;;;12.02;7.15;;;;;;;;;;5011153;28;20079;-64
2022/10/14 02:49:40;;;;;;;15.23;6.60;;;;;;;;;;5028014;28;20025;-64
2022/10/14 02:52:05;;;;;;;20.33;7.17;;;;;;;;;;5017921;28;20033;-64
2022/10/14 02:54:31;;;;;;;8.17;4.80;;;;;;;;;;5010912;28;20292;-64
2022/10/14 02:56:56;;;;;;;17.77;7.50;;;;;;;;;;5012116;28;20571;-63
2022/10/14 02:59:21;;;;;;;17.80;7.07;;;;;;;;;;5029778;28;20760;-64
2022/10/14 03:01:46;;;;;;;13.47;7.47;;;;;;;;;;5024395;28;20363;-63
2022/10/14 03:04:11;;;;;;;12.40;6.63;;;;;;;;;;5015006;28;20749;-64
2022/10/14 03:06:36;;;;;;;12.48;5.50;;;;;;;;;;5011827;28;20303;-64
2022/10/14 03:09:02;;;;;;;13.27;6.80;;;;;;;;;;5019080;28;20049;-64
2022/10/14 03:11:27;;;;;;;14.73;5.65;;;;;;;;;;5018681;28;20764;-63
2022/10/14 03:13:52;;;;;;;12.33;7.00;;;;;;;;;;5018837;28;20049;-64
2022/10/14 03:16:17;;;;;;;16.70;7.40;;;;;;;;;;5011911;28;20284;-64
2022/10/14 03:18:43;;;;;;;13.70;6.97;;;;;;;;;;5023211;28;20771;-64
2022/10/14 03:21:08;;;;;;;12.13;6.68;;;;;;;;;;5019891;28;20025;-64
2022/10/14 03:23:33;;;;;;;18.63;6.43;;;;;;;;;;5011814;28;20030;-64
2022/10/14 03:25:58;;;;;;;12.30;6.60;;;;;;;;;;5022628;28;20025;-64
2022/10/14 03:28:23;;;;;;;13.63;6.73;;;;;;;;;;5028954;28;20299;-64
2022/10/14 03:30:48;;;;;;;9.75;5.18;;;;;;;;;;5030834;28;20325;-64
2022/10/14 03:33:14;;;;;;;13.13;6.70;;;;;;;;;;5023903;28;20025;-64
2022/10/14 03:35:39;;;;;;;16.17;6.30;;;;;;;;;;5010866;28;20034;-64
2022/10/14 03:38:05;;;;;;;12.93;5.60;;;;;;;;;;5010391;28;20285;-64
2022/10/14 03:40:30;;;;;;;10.90;5.38;;;;;;;;;;5018986;28;20287;-63
2022/10/14 03:43:00;;;;;;;10.70;5.00;;;;;;;;;;5031956;28;20017;-64
2022/10/14 03:45:25;;;;;;;9.98;4.93;;;;;;;;;;5018460;28;20733;-64
2022/10/14 03:47:50;;;;;;;12.45;5.72;;;;;;;;;;5017604;28;20021;-64
2022/10/14 03:50:15;;;;;;;9.80;5.18;;;;;;;;;;5022150;28;20438;-64
2022/10/14 03:52:41;;;;;;;10.13;4.90;;;;;;;;;;5011364;28;20018;-64
2022/10/14 03:55:07;;;;;;;13.02;4.95;;;;;;;;;;5013979;28;20038;-65
2022/10/14 03:57:32;;;;;;;9.27;5.30;;;;;;;;;;5022835;28;20143;-64
2022/10/14 03:59:57;;;;;;;14.32;6.07;;;;;;;;;;5021106;28;20021;-64
2022/10/14 04:02:22;;;;;;;15.20;5.67;;;;;;;;;;5023690;28;20024;-64
2022/10/14 04:04:48;;;;;;;11.93;6.15;;;;;;;;;;5007488;28;20331;-64
2022/10/14 04:07:13;;;;;;;3.33;2.33;;;;;;;;;;5004180;28;20034;-64
2022/10/14 04:09:38;;;;;;;12.73;5.67;;;;;;;;;;5009901;28;20281;-63
2022/10/14 04:12:04;;;;;;;8.03;4.27;;;;;;;;;;5009838;28;20749;-64
2022/10/14 04:14:29;;;;;;;13.15;4.97;;;;;;;;;;5009812;28;20276;-64
2022/10/14 04:16:54;;;;;;;15.48;6.75;;;;;;;;;;5020003;28;20079;-66
2022/10/14 04:19:20;;;;;;;7.50;4.43;;;;;;;;;;5015502;28;20056;-64
2022/10/14 04:21:45;;;;;;;11.23;6.00;;;;;;;;;;5007751;28;20792;-65
2022/10/14 04:24:11;;;;;;;10.85;6.53;;;;;;;;;;5011093;28;20029;-66
2022/10/14 04:26:36;;;;;;;15.80;5.90;;;;;;;;;;5014533;28;20104;-65
2022/10/14 04:29:01;;;;;;;10.20;5.63;;;;;;;;;;5008165;28;20448;-66
2022/10/14 04:31:27;;;;;;;10.25;4.82;;;;;;;;;;5010330;28;20441;-65
2022/10/14 04:33:52;;;;;;;11.50;5.60;;;;;;;;;;5010620;28;20534;-66
2022/10/14 04:36:17;;;;;;;12.15;5.88;;;;;;;;;;5007256;28;20288;-66
2022/10/14 04:38:42;;;;;;;11.75;4.70;;;;;;;;;;5011820;28;20604;-65
2022/10/14 04:41:08;;;;;;;12.65;5.95;;;;;;;;;;5015719;28;20034;-65
2022/10/14 04:43:33;;;;;;;15.77;7.13;;;;;;;;;;5007676;28;20026;-65
2022/10/14 04:45:58;;;;;;;10.43;5.67;;;;;;;;;;5012942;28;20309;-65
2022/10/14 04:48:23;;;;;;;14.88;6.75;;;;;;;;;;5014757;28;20281;-65
2022/10/14 04:50:49;;;;;;;17.00;5.00;;;;;;;;;;5008074;28;20028;-65
2022/10/14 04:53:14;;;;;;;12.27;5.30;;;;;;;;;;5009975;28;20490;-65
2022/10/14 04:55:40;;;;;;;11.13;6.65;;;;;;;;;;5006241;28;20041;-66
2022/10/14 04:58:05;;;;;;;10.30;5.72;;;;;;;;;;5009028;28;20025;-65
2022/10/14 05:00:30;;;;;;;11.18;6.22;;;;;;;;;;5014188;28;20718;-65
2022/10/14 05:02:55;;;;;;;12.33;7.00;;;;;;;;;;5015669;28;20440;-65
2022/10/14 05:05:20;;;;;;;13.47;6.77;;;;;;;;;;5007173;28;20280;-65
2022/10/14 05:07:46;;;;;;;17.87;6.27;;;;;;;;;;5016622;28;20803;-65
2022/10/14 05:10:11;;;;;;;14.07;7.20;;;;;;;;;;5014748;28;20277;-65
2022/10/14 05:12:37;;;;;;;19.02;6.45;;;;;;;;;;5007571;28;20037;-65
2022/10/14 05:15:04;;;;;;;11.85;6.10;;;;;;;;;;5021374;28;20034;-65
2022/10/14 05:17:29;;;;;;;10.77;6.38;;;;;;;;;;5011746;28;20029;-65
2022/10/14 05:19:54;;;;;;;13.65;6.47;;;;;;;;;;5006334;28;20126;-65
2022/10/14 05:22:19;;;;;;;14.57;5.85;;;;;;;;;;5012525;28;20022;-65
2022/10/14 05:24:45;;;;;;;10.80;6.40;;;;;;;;;;5013479;28;20106;-65
2022/10/14 05:27:10;;;;;;;15.93;7.28;;;;;;;;;;5024756;28;20772;-64
2022/10/14 05:29:35;;;;;;;10.70;4.65;;;;;;;;;;5020359;28;20652;-65
2022/10/14 05:34:28;;;;;;;12.50;5.32;;;;;;;;;;5071712;28;20118;-62
2022/10/14 05:36:53;;;;;;;13.40;5.87;;;;;;;;;;5074726;28;20021;-63
2022/10/14 05:39:18;;;;;;;15.40;6.05;;;;;;;;;;5074455;28;20266;-63
2022/10/14 05:41:43;;;;;;;10.23;6.20;;;;;;;;;;5075836;28;20035;-62
2022/10/14 05:44:09;;;;;;;12.37;5.90;;;;;;;;;;5070790;28;20028;-62
2022/10/14 05:46:35;;;;;;;14.02;7.25;;;;;;;;;;5064069;28;20623;-62
2022/10/14 05:49:04;;;;;;;14.23;6.00;;;;;;;;;;5066036;28;20039;-62
2022/10/14 05:51:29;;;;;;;9.48;5.72;;;;;;;;;;5068040;28;20264;-62
2022/10/14 05:53:55;;;;;;;14.43;5.27;;;;;;;;;;5062014;28;20025;-62
2022/10/14 05:56:20;;;;;;;12.37;6.10;;;;;;;;;;5076004;28;20714;-63
2022/10/14 05:58:45;;;;;;;9.93;5.10;;;;;;;;;;5067431;28;20411;-63
2022/10/14 06:01:11;;;;;;;10.63;5.25;;;;;;;;;;5059810;28;20770;-62
2022/10/14 06:03:36;;;;;;;13.93;5.35;;;;;;;;;;5063536;28;20020;-62
2022/10/14 06:06:01;;;;;;;11.43;4.85;;;;;;;;;;5067007;28;20017;-63
2022/10/14 06:08:27;;;;;;;8.57;5.32;;;;;;;;;;5079418;28;20073;-62
2022/10/14 06:10:52;;;;;;;6.78;3.45;;;;;;;;;;5070018;28;20107;-62
2022/10/14 06:13:18;;;;;;;13.40;5.07;;;;;;;;;;5083887;28;20020;-62
2022/10/14 06:15:43;;;;;;;8.73;4.70;;;;;;;;;;5061602;28;20029;-62
2022/10/14 06:18:08;;;;;;;15.13;4.90;;;;;;;;;;5066974;28;20407;-62
2022/10/14 06:20:33;;;;;;;20.93;4.20;;;;;;;;;;5077515;28;20293;-63
2022/10/14 06:22:59;;;;;;;6.88;3.88;;;;;;;;;;5080343;28;20352;-62
2022/10/14 06:25:25;;;;;;;6.03;3.60;;;;;;;;;;5076601;28;20063;-62
2022/10/14 06:27:50;;;;;;;12.35;3.75;;;;;;;;;;5076062;28;20319;-62
2022/10/14 06:30:15;;;;;;;6.43;3.78;;;;;;;;;;5070139;28;20099;-63
2022/10/14 06:32:40;;;;;;;8.98;3.33;;;;;;;;;;5077098;28;20396;-62
2022/10/14 06:35:06;;;;;;;11.40;2.90;;;;;;;;;;5074168;28;20440;-62
2022/10/14 06:37:31;;;;;;;8.20;4.72;;;;;;;;;;5063716;28;20328;-62
2022/10/14 06:39:56;;;;;;;2.80;1.75;;;;;;;;;;5074950;28;20019;-63
2022/10/14 06:42:22;;;;;;;7.40;3.03;;;;;;;;;;5064473;28;20025;-63
2022/10/14 06:44:47;;;;;;;8.87;4.00;;;;;;;;;;5059568;28;20336;-62
2022/10/14 06:47:12;;;;;;;6.93;3.87;;;;;;;;;;5086539;28;20292;-63
2022/10/14 06:49:37;;;;;;;7.40;3.30;;;;;;;;;;5067848;28;20348;-63
2022/10/14 06:52:03;;;;;;;8.87;3.97;;;;;;;;;;5074021;28;20286;-63
2022/10/14 06:54:28;;;;;;;9.02;4.13;;;;;;;;;;5084060;28;20271;-63
2022/10/14 06:56:53;;;;;;;8.65;3.50;;;;;;;;;;5060674;28;20062;-63
2022/10/14 06:59:18;;;;;;;11.83;4.17;;;;;;;;;;5068106;28;20021;-63
2022/10/14 07:01:43;;;;;;;9.20;3.97;;;;;;;;;;5073750;28;20287;-65
2022/10/14 07:04:08;;;;;;;8.40;2.33;;;;;;;;;;5065779;28;20031;-63
2022/10/14 07:06:35;;;;;;;8.13;4.63;;;;;;;;;;5079662;28;20024;-63
2022/10/14 07:09:00;;;;;;;10.00;4.85;;;;;;;;;;5076359;28;20662;-63
2022/10/14 07:11:25;;;;;;;7.70;4.33;;;;;;;;;;5064077;28;20016;-63
2022/10/14 07:13:50;;;;;;;16.00;6.10;;;;;;;;;;5068552;28;20271;-63
2022/10/14 07:16:15;;;;;;;11.90;5.20;;;;;;;;;;5068896;28;20016;-63
2022/10/14 07:18:41;;;;;;;10.30;5.13;;;;;;;;;;5066447;28;20282;-63
2022/10/14 07:21:06;;;;;;;13.55;4.22;;;;;;;;;;5078865;28;20281;-63
2022/10/14 07:23:31;;;;;;;6.90;4.78;;;;;;;;;;5067131;28;20044;-63
2022/10/14 07:25:57;;;;;;;10.40;5.22;;;;;;;;;;5069375;28;20426;-63
2022/10/14 07:28:22;;;;;;;11.00;5.40;;;;;;;;;;5062639;28;20264;-63
2022/10/14 07:31:00;;;;;;;16.55;6.00;;;;;;;;;;5065406;28;20086;-63
2022/10/14 07:33:26;;;;;;;10.77;4.30;;;;;;;;;;5071804;28;20020;-63
2022/10/14 07:35:51;;;;;;;9.27;4.38;;;;;;;;;;5069769;28;20082;-63
2022/10/14 07:38:16;;;;;;;9.52;4.70;;;;;;;;;;5081299;28;20032;-63
2022/10/14 07:40:41;;;;;;;5.27;2.60;;;;;;;;;;5082832;28;20105;-63
2022/10/14 07:43:06;;;;;;;6.37;3.03;;;;;;;;;;5068730;28;20282;-63
2022/10/14 07:45:35;;;;;;;9.10;4.20;;;;;;;;;;5073279;28;20671;-63
2022/10/14 07:48:00;;;;;;;6.35;3.13;;;;;;;;;;5077064;28;20407;-63
2022/10/14 07:50:25;;;;;;;12.52;5.88;;;;;;;;;;5071797;28;20030;-63
2022/10/14 07:52:51;;;;;;;8.10;3.58;;;;;;;;;;5070924;28;20480;-63
2022/10/14 07:55:16;;;;;;;10.73;4.20;;;;;;;;;;5073063;28;20448;-63
2022/10/14 07:57:41;;;;;;;10.65;4.72;;;;;;;;;;5071649;28;20267;-63
2022/10/14 08:00:07;;;;;;;7.57;3.67;;;;;;;;;;5064524;28;20032;-63
2022/10/14 08:02:32;;;;;;;2.38;1.80;;;;;;;;;;5062853;28;20310;-63
2022/10/14 08:04:57;;;;;;;10.33;4.70;;;;;;;;;;5080087;28;20074;-63
2022/10/14 08:07:24;;;;;;;9.65;5.72;;;;;;;;;;5070689;28;20271;-63
2022/10/14 08:09:49;;;;;;;17.65;4.63;;;;;;;;;;5074413;28;20428;-63
2022/10/14 08:12:14;;;;;;;5.55;3.58;;;;;;;;;;5067595;28;20021;-63
2022/10/14 08:14:39;;;;;;;10.90;3.60;;;;;;;;;;5074928;28;20055;-63
2022/10/14 08:17:04;;;;;;;10.87;5.40;;;;;;;;;;5073762;28;20027;-63
2022/10/14 08:19:30;;;;;;;9.47;4.67;;;;;;;;;;5053726;28;20263;-63
2022/10/14 08:21:55;;;;;;;5.95;3.80;;;;;;;;;;5071339;28;20870;-63
2022/10/14 08:24:20;;;;;;;12.95;5.38;;;;;;;;;;5073372;28;20016;-63
2022/10/14 08:26:50;;;;;;;9.77;3.45;;;;;;;;;;5067947;28;20365;-63
2022/10/14 08:29:15;;;;;;;6.90;3.50;;;;;;;;;;5070305;28;20019;-63
2022/10/14 08:31:40;;;;;;;9.20;4.15;;;;;;;;;;5067009;28;20032;-63
2022/10/14 08:34:05;;;;;;;5.67;3.87;;;;;;;;;;5065159;28;20033;-63
2022/10/14 08:36:31;;;;;;;7.38;4.10;;;;;;;;;;5077912;28;20763;-63
2022/10/14 08:38:56;;;;;;;14.38;4.22;;;;;;;;;;5069770;28;20059;-63
2022/10/14 08:41:39;;;;;;;10.60;4.40;;;;;;;;;;5068539;28;20047;-63
2022/10/14 08:44:09;;;;;;;9.40;5.15;;;;;;;;;;5077071;28;20472;-63
2022/10/14 08:46:39;;;;;;;7.97;4.95;;;;;;;;;;5069527;28;20036;-63
2022/10/14 08:49:07;;;;;;;14.55;5.13;;;;;;;;;;5059295;28;20055;-63
2022/10/14 08:51:32;;;;;;;7.25;4.43;;;;;;;;;;5070119;28;20027;-63
2022/10/14 08:54:05;;;;;;;12.40;4.22;;;;;;;;;;5080354;28;20027;-63
2022/10/14 08:56:30;;;;;;;11.70;5.05;;;;;;;;;;5063425;28;20024;-63
2022/10/14 08:58:59;;;;;;;11.90;5.63;;;;;;;;;;5064554;28;20020;-63
2022/10/14 09:01:26;;;;;;;13.90;4.20;;;;;;;;;;5057432;28;20074;-63
2022/10/14 09:03:55;;;;;;;9.85;6.15;;;;;;;;;;5066933;28;20016;-63
2022/10/14 09:06:27;;;;;;;9.90;4.75;;;;;;;;;;5076712;28;20016;-63
2022/10/14 09:08:58;;;;;;;10.98;5.40;;;;;;;;;;5065702;28;20128;-63
2022/10/14 09:11:24;;;;;;;6.90;3.25;;;;;;;;;;5065976;28;20025;-63
2022/10/14 09:13:54;;;;;;;9.30;4.53;;;;;;;;;;5060024;28;20029;-63
2022/10/14 09:16:21;;;;;;;4.75;2.60;;;;;;;;;;5062850;28;20598;-63
2022/10/14 09:18:53;;;;;;;10.57;4.90;;;;;;;;;;5062247;28;20033;-63
2022/10/14 09:21:21;;;;;;;7.53;3.63;;;;;;;;;;5081612;28;20089;-63
2022/10/14 09:23:46;;;;;;;5.35;3.28;;;;;;;;;;5073441;28;20035;-63
2022/10/14 09:26:16;;;;;;;7.78;4.45;;;;;;;;;;5083608;28;20036;-63
2022/10/14 09:28:42;;;;;;;9.57;3.90;;;;;;;;;;5062326;28;20117;-63
2022/10/14 09:31:09;;;;;;;5.03;2.95;;;;;;;;;;5060737;28;20044;-63
2022/10/14 09:33:38;;;;;;;3.17;1.60;;;;;;;;;;5061491;28;20027;-62
2022/10/14 09:36:04;;;;;;;6.63;3.00;;;;;;;;;;5076556;28;20472;-63
2022/10/14 09:38:29;;;;;;;5.30;3.15;;;;;;;;;;5078244;28;20032;-63
2022/10/14 09:40:57;;;;;;;5.80;2.60;;;;;;;;;;5074431;28;20013;-63
2022/10/14 09:43:23;;;;;;;9.38;4.32;;;;;;;;;;5081849;28;20074;-63
2022/10/14 09:45:50;;;;;;;4.65;2.53;;;;;;;;;;5054540;28;20028;-63
2022/10/14 09:48:22;;;;;;;10.73;2.78;;;;;;;;;;5072469;28;20023;-63
2022/10/14 09:50:50;;;;;;;9.30;3.58;;;;;;;;;;5077524;28;20027;-63
2022/10/14 09:53:25;;;;;;;6.25;3.35;;;;;;;;;;5074523;28;20380;-63
2022/10/14 09:56:01;;;;;;;7.28;3.63;;;;;;;;;;5071534;28;20024;-63
2022/10/14 09:58:45;;;;;;;9.02;4.03;;;;;;;;;;5068151;28;20134;-63
2022/10/14 10:01:36;;;;;;;7.07;3.38;;;;;;;;;;5063731;28;20031;-63
2022/10/14 10:04:20;;;;;;;12.85;6.15;;;;;;;;;;5060495;28;20040;-63
2022/10/14 10:06:53;;;;;;;6.88;3.17;;;;;;;;;;5074844;28;20103;-63
2022/10/14 10:09:18;;;;;;;11.20;4.60;;;;;;;;;;5077916;28;20038;-62
2022/10/14 10:11:44;;;;;;;11.48;6.22;;;;;;;;;;5082298;28;20016;-62
2022/10/14 10:14:29;;;;;;;11.00;5.15;;;;;;;;;;5060309;28;20020;-62
2022/10/14 10:17:06;;;;;;;9.13;4.55;;;;;;;;;;5068942;28;20021;-62
2022/10/14 10:19:35;;;;;;;3.55;2.58;;;;;;;;;;5071281;28;20012;-63
2022/10/14 10:22:21;;;;;;;4.93;2.58;;;;;;;;;;5065743;28;20408;-62
2022/10/14 10:24:46;;;;;;;17.33;6.13;;;;;;;;;;5066464;28;20455;-63
2022/10/14 10:27:20;;;;;;;14.50;6.00;;;;;;;;;;5075936;28;20045;-62
2022/10/14 10:29:45;;;;;;;18.75;7.85;;;;;;;;;;5065659;28;20423;-62
2022/10/14 10:32:15;;;;;;;9.20;3.35;;;;;;;;;;5083545;28;20017;-62
2022/10/14 10:34:40;;;;;;;15.70;6.00;;;;;;;;;;5068905;28;20027;-63
2022/10/14 10:37:08;;;;;;;14.77;6.32;;;;;;;;;;5077506;28;20365;-62
2022/10/14 10:39:52;;;;;;;18.05;6.70;;;;;;;;;;5055889;28;20074;-63
2022/10/14 10:42:26;;;;;;;13.50;6.20;;;;;;;;;;5068703;28;20481;-63
2022/10/14 10:44:57;;;;;;;12.85;4.88;;;;;;;;;;5059585;28;20021;-64
2022/10/14 10:47:35;;;;;;;9.93;4.30;;;;;;;;;;5078946;28;20058;-64
2022/10/14 10:50:07;;;;;;;9.63;5.43;;;;;;;;;;5070317;28;20039;-64
2022/10/14 10:52:47;;;;;;;17.50;6.50;;;;;;;;;;5076878;28;20370;-63
2022/10/14 10:55:23;;;;;;;8.93;4.95;;;;;;;;;;5054667;28;20024;-63
2022/10/14 10:57:48;;;;;;;5.03;2.92;;;;;;;;;;5075733;28;20029;-64
2022/10/14 11:00:16;;;;;;;14.70;6.00;;;;;;;;;;5063023;28;20498;-64
2022/10/14 11:02:50;;;;;;;18.77;8.10;;;;;;;;;;5073700;28;20279;-64
2022/10/14 11:05:28;;;;;;;14.35;5.80;;;;;;;;;;5082487;28;20027;-64
2022/10/14 11:14:04;;;;;;;13.25;5.40;;;;;;;;;;5069322;28;20158;-64
2022/10/14 11:16:50;;;;;;;18.15;6.45;;;;;;;;;;5069575;28;20027;-62
2022/10/14 11:19:27;;;;;;;12.20;4.90;;;;;;;;;;5061639;28;20035;-62
2022/10/14 11:21:52;;;;;;;12.82;3.92;;;;;;;;;;5074040;28;20016;-62
2022/10/14 11:24:17;;;;;;;8.98;4.63;;;;;;;;;;5067635;28;20021;-61
2022/10/14 11:27:07;;;;;;;11.90;5.00;;;;;;;;;;5070446;28;20024;-61
2022/10/14 11:29:55;;;;;;;15.20;7.05;;;;;;;;;;5068581;28;20017;-62
2022/10/14 11:34:51;;;;;;;12.60;6.90;;;;;;;;;;5098058;23;20043;-67
2022/10/14 11:37:27;;;;;;;15.45;7.28;;;;;;;;;;5074710;28;20055;-68
2022/10/14 11:39:58;;;;;;;17.17;6.70;;;;;;;;;;5076626;28;20012;-68
2022/10/14 11:42:23;;;;;;;11.95;5.78;;;;;;;;;;5073017;28;20035;-66
2022/10/14 11:44:55;;;;;;;12.30;4.53;;;;;;;;;;5081766;28;20016;-67
2022/10/14 11:47:32;;;;;;;16.90;9.23;;;;;;;;;;5066219;28;20692;-66
2022/10/14 11:50:02;;;;;;;17.13;9.43;;;;;;;;;;5077271;28;20026;-66
2022/10/14 11:52:28;;;;;;;15.23;4.63;;;;;;;;;;5066696;28;20067;-67
2022/10/14 11:55:00;;;;;;;16.10;6.45;;;;;;;;;;5065988;28;20255;-68
2022/10/14 11:57:25;;;;;;;17.35;8.73;;;;;;;;;;5077141;28;20100;-66
2022/10/14 12:02:56;;;;;;;20.25;9.70;;;;;;;;;;5070347;28;20046;-66
2022/10/14 12:05:24;;;;;;;23.02;8.40;;;;;;;;;;5072246;28;20047;-67
2022/10/14 12:07:59;;;;;;;13.60;7.80;;;;;;;;;;5083948;28;20038;-67
2022/10/14 12:10:26;;;;;;;17.98;7.90;;;;;;;;;;5067377;28;20047;-66
2022/10/14 12:12:53;;;;;;;19.83;8.63;;;;;;;;;;5070286;28;20419;-66
2022/10/14 12:15:20;;;;;;;16.33;8.10;;;;;;;;;;5072037;28;20020;-65
2022/10/14 12:17:48;;;;;;;6.55;4.03;;;;;;;;;;5064045;28;20031;-66
2022/10/14 12:20:19;;;;;;;16.00;9.02;;;;;;;;;;5069152;28;20039;-66
2022/10/14 12:22:46;;;;;;;18.25;6.85;;;;;;;;;;5060361;28;20024;-67
2022/10/14 12:25:13;;;;;;;21.42;9.60;;;;;;;;;;5067328;28;20059;-67
2022/10/14 12:27:38;;;;;;;18.10;9.43;;;;;;;;;;5067413;28;20020;-66
2022/10/14 12:30:23;;;;;;;23.30;8.38;;;;;;;;;;5081050;28;20115;-67
2022/10/14 12:33:00;;;;;;;21.38;9.13;;;;;;;;;;5060737;28;20048;-66
2022/10/14 12:35:44;;;;;;;16.23;5.40;;;;;;;;;;5062741;28;20056;-66
2022/10/14 12:38:10;;;;;;;19.38;7.35;;;;;;;;;;5064784;28;20044;-66
2022/10/14 12:40:35;;;;;;;18.15;6.30;;;;;;;;;;5071388;28;20030;-67
2022/10/14 12:43:02;;;;;;;12.68;7.03;;;;;;;;;;5071056;28;20554;-66
2022/10/14 12:45:28;;;;;;;12.98;4.50;;;;;;;;;;5075473;28;20036;-65
2022/10/14 12:48:02;;;;;;;17.63;6.30;;;;;;;;;;5072182;28;21397;-66
2022/10/14 12:50:30;;;;;;;10.93;6.07;;;;;;;;;;5066775;28;20020;-67
2022/10/14 12:52:56;;;;;;;16.55;8.20;;;;;;;;;;5079901;28;20391;-67
2022/10/14 12:55:23;;;;;;;18.67;9.18;;;;;;;;;;5065603;28;20738;-65
2022/10/14 12:58:02;;;;;;;9.93;4.30;;;;;;;;;;5072028;28;20430;-65
2022/10/14 13:00:29;;;;;;;20.80;8.50;;;;;;;;;;5080196;28;20098;-66
2022/10/14 13:02:58;;;;;;;14.15;6.05;;;;;;;;;;5072870;28;20059;-66
2022/10/14 13:05:26;;;;;;;20.77;6.53;;;;;;;;;;5070182;28;20024;-66
2022/10/14 13:08:14;;;;;;;15.13;6.72;;;;;;;;;;5064904;28;20035;-66
2022/10/14 13:10:39;;;;;;;10.40;5.30;;;;;;;;;;5069129;28;20040;-65
2022/10/14 13:13:37;;;;;;;17.65;8.23;;;;;;;;;;5076051;28;20120;-65
2022/10/14 13:16:25;;;;;;;11.95;7.03;;;;;;;;;;5021948;28;20044;-65
2022/10/14 13:18:51;;;;;;;15.70;7.63;;;;;;;;;;5015355;28;20115;-65
2022/10/14 13:21:39;;;;;;;11.07;6.68;;;;;;;;;;5074234;28;20103;-65
2022/10/14 13:24:06;;;;;;;7.68;4.15;;;;;;;;;;5053356;28;20043;-66
2022/10/14 13:26:58;;;;;;;13.70;5.63;;;;;;;;;;5072492;28;20020;-65
2022/10/14 13:29:34;;;;;;;11.38;5.97;;;;;;;;;;5054128;28;20439;-64
2022/10/14 13:32:02;;;;;;;8.13;3.17;;;;;;;;;;5067962;28;20036;-67
2022/10/14 13:34:33;;;;;;;10.80;5.88;;;;;;;;;;5065050;28;20052;-65
2022/10/14 13:37:17;;;;;;;6.80;4.55;;;;;;;;;;5066867;28;20362;-65
2022/10/14 13:39:43;;;;;;;12.90;6.55;;;;;;;;;;5071872;28;20077;-65
2022/10/14 13:42:18;;;;;;;9.32;5.07;;;;;;;;;;5070248;28;20040;-65
2022/10/14 13:44:43;;;;;;;14.23;5.72;;;;;;;;;;5076096;28;20071;-65
2022/10/14 13:47:12;;;;;;;19.33;5.97;;;;;;;;;;5065303;28;20024;-65
2022/10/14 13:49:39;;;;;;;12.20;6.50;;;;;;;;;;5071972;28;20289;-65
2022/10/14 13:52:06;;;;;;;10.15;4.70;;;;;;;;;;5073389;28;20111;-66
2022/10/14 13:54:31;;;;;;;15.68;5.47;;;;;;;;;;5069855;28;20106;-66
2022/10/14 13:57:09;;;;;;;6.78;4.50;;;;;;;;;;5079983;28;20104;-66
2022/10/14 13:59:35;;;;;;;7.80;4.22;;;;;;;;;;5068478;28;20040;-66
2022/10/14 14:02:01;;;;;;;8.60;4.95;;;;;;;;;;5063864;28;20074;-67
2022/10/14 14:04:28;;;;;;;9.82;4.35;;;;;;;;;;5076079;28;20082;-71
2022/10/14 14:06:54;;;;;;;14.25;6.18;;;;;;;;;;5070899;28;20020;-70
2022/10/14 14:09:21;;;;;;;12.88;5.68;;;;;;;;;;5082549;28;20015;-72
2022/10/14 14:11:48;;;;;;;17.83;6.38;;;;;;;;;;5060809;28;20121;-73
2022/10/14 14:14:18;;;;;;;9.32;4.93;;;;;;;;;;5088181;28;20028;-70
2022/10/14 14:16:54;;;;;;;9.65;4.57;;;;;;;;;;5064001;28;20067;-74
2022/10/14 14:19:30;;;;;;;8.85;5.28;;;;;;;;;;5068309;28;20043;-73
2022/10/14 14:22:13;;;;;;;15.05;5.35;;;;;;;;;;5053887;28;20091;-71
2022/10/14 14:24:38;;;;;;;10.07;5.30;;;;;;;;;;5068952;28;20047;-73
2022/10/14 14:27:04;;;;;;;8.83;4.47;;;;;;;;;;5074231;28;20048;-76
2022/10/14 14:29:33;;;;;;;16.02;5.95;;;;;;;;;;5080103;28;20293;-73
2022/10/14 14:32:00;;;;;;;14.60;6.85;;;;;;;;;;5060432;28;20028;-73
2022/10/14 14:34:25;;;;;;;13.40;5.90;;;;;;;;;;5062643;28;20028;-71
2022/10/14 14:36:51;;;;;;;11.38;5.88;;;;;;;;;;5077116;28;20651;-74
2022/10/14 14:39:24;;;;;;;7.68;4.50;;;;;;;;;;5080011;28;20100;-68
2022/10/14 14:41:51;;;;;;;8.93;5.30;;;;;;;;;;5061442;28;20381;-71
2022/10/14 14:44:17;;;;;;;12.75;6.95;;;;;;;;;;5081417;28;20021;-72
2022/10/14 14:46:44;;;;;;;10.15;5.30;;;;;;;;;;5068188;28;20024;-73
2022/10/14 14:49:14;;;;;;;14.50;5.90;;;;;;;;;;5069392;28;20024;-72
2022/10/14 14:51:40;;;;;;;11.05;5.53;;;;;;;;;;5068440;28;20024;-70
2022/10/14 14:54:05;;;;;;;8.60;5.20;;;;;;;;;;5073767;28;20558;-71